createdAt,value
2018-03-25T00:01:43.815Z,4.10
2018-03-25T00:04:21.962Z,4.20
2018-03-25T00:06:49.575Z,4.40
2018-03-25T00:09:25.884Z,4.50
2018-03-25T00:11:54.343Z,4.50
2018-03-25T00:14:29.865Z,4.40
2018-03-25T00:17:05.327Z,4.10
2018-03-25T00:19:32.290Z,4.10
2018-03-25T00:22:06.624Z,4.20
2018-03-25T00:24:46.294Z,4.10
2018-03-25T00:27:14.006Z,4.00
2018-03-25T00:29:40.936Z,3.70
2018-03-25T00:32:07.879Z,3.70
2018-03-25T00:34:34.767Z,3.40
2018-03-25T00:37:01.713Z,3.40
2018-03-25T00:39:40.252Z,3.50
2018-03-25T00:42:09.616Z,3.70
2018-03-25T00:44:48.180Z,3.80
2018-03-25T00:47:15.917Z,4.00
2018-03-25T00:49:42.809Z,4.00
2018-03-25T00:52:21.507Z,4.00
2018-03-25T00:54:49.007Z,4.00
2018-03-25T00:57:27.755Z,4.00
2018-03-25T01:00:05.593Z,3.90
2018-03-25T01:02:43.509Z,3.90
2018-03-25T01:05:13.746Z,3.80
2018-03-25T01:07:47.248Z,3.90
2018-03-25T01:10:24.496Z,3.60
2018-03-25T01:13:04.747Z,3.40
2018-03-25T01:15:52.681Z,3.50
2018-03-25T01:18:32.030Z,3.50
2018-03-25T01:20:59.604Z,3.40
2018-03-25T01:23:26.563Z,3.20
2018-03-25T01:25:53.467Z,3.20
2018-03-25T01:28:20.399Z,3.00
2018-03-25T01:30:47.338Z,3.00
2018-03-25T01:33:14.207Z,3.00
2018-03-25T01:35:41.144Z,3.10
2018-03-25T01:38:08.073Z,3.10
2018-03-25T01:40:35.045Z,3.00
2018-03-25T01:43:01.973Z,2.90
2018-03-25T01:45:28.930Z,2.90
2018-03-25T01:47:55.876Z,3.00
2018-03-25T01:50:22.810Z,3.00
2018-03-25T01:52:49.683Z,3.00
2018-03-25T01:55:16.668Z,3.00
2018-03-25T01:57:43.570Z,3.00
2018-03-25T02:00:10.645Z,3.10
2018-03-25T02:02:37.578Z,3.20
2018-03-25T02:05:05.249Z,3.30
2018-03-25T02:07:32.200Z,3.30
2018-03-25T02:09:59.827Z,2.90
2018-03-25T02:12:26.757Z,2.90
2018-03-25T02:14:53.690Z,2.70
2018-03-25T02:17:20.653Z,2.70
2018-03-25T02:19:47.544Z,2.90
2018-03-25T02:22:15.239Z,2.80
2018-03-25T02:24:42.114Z,2.70
2018-03-25T02:27:09.060Z,2.80
2018-03-25T02:29:35.952Z,2.90
2018-03-25T02:32:03.000Z,2.70
2018-03-25T02:34:29.919Z,2.70
2018-03-25T02:36:56.860Z,2.50
2018-03-25T02:39:23.800Z,2.10
2018-03-25T02:41:50.671Z,1.80
2018-03-25T02:44:18.424Z,1.90
2018-03-25T02:46:45.351Z,1.90
2018-03-25T02:49:12.287Z,2.10
2018-03-25T02:51:39.248Z,2.30
2018-03-25T02:54:06.133Z,2.40
2018-03-25T02:56:33.040Z,2.40
2018-03-25T02:58:59.931Z,2.40
2018-03-25T03:01:26.902Z,2.30
2018-03-25T03:03:53.876Z,2.40
2018-03-25T03:06:20.799Z,2.40
2018-03-25T03:08:47.721Z,2.50
2018-03-25T03:11:14.613Z,2.50
2018-03-25T03:13:41.558Z,2.30
2018-03-25T03:16:08.488Z,2.30
2018-03-25T03:18:35.416Z,2.30
2018-03-25T03:21:02.346Z,2.40
2018-03-25T03:23:29.305Z,2.20
2018-03-25T03:25:56.160Z,2.20
2018-03-25T03:28:23.093Z,2.10
2018-03-25T03:30:49.954Z,2.00
2018-03-25T03:33:16.916Z,2.00
2018-03-25T03:35:43.817Z,2.10
2018-03-25T03:38:10.677Z,2.10
2018-03-25T03:40:37.608Z,2.10
2018-03-25T03:43:04.478Z,2.10
2018-03-25T03:45:31.529Z,2.10
2018-03-25T03:47:58.425Z,2.20
2018-03-25T03:50:26.126Z,2.10
2018-03-25T03:52:53.000Z,2.10
2018-03-25T03:55:19.886Z,2.20
2018-03-25T03:57:47.570Z,2.20
2018-03-25T04:00:14.500Z,2.10
2018-03-25T04:02:41.437Z,2.20
2018-03-25T04:05:09.118Z,2.30
2018-03-25T04:07:36.051Z,2.30
2018-03-25T04:10:03.100Z,2.20
2018-03-25T04:12:30.818Z,2.20
2018-03-25T04:14:57.692Z,2.20
2018-03-25T04:17:25.319Z,2.20
2018-03-25T04:19:52.276Z,2.20
2018-03-25T04:22:19.219Z,2.20
2018-03-25T04:24:46.101Z,2.20
2018-03-25T04:27:28.956Z,2.10
2018-03-25T04:29:56.543Z,2.10
2018-03-25T04:32:23.498Z,2.00
2018-03-25T04:34:50.364Z,2.00
2018-03-25T04:37:18.092Z,2.00
2018-03-25T04:39:44.959Z,1.90
2018-03-25T04:42:11.905Z,1.90
2018-03-25T04:44:38.880Z,2.00
2018-03-25T04:49:35.479Z,2.20
2018-03-25T04:52:03.524Z,2.30
2018-03-25T04:54:30.471Z,2.50
2018-03-25T04:56:57.406Z,2.50
2018-03-25T04:59:24.344Z,2.50
2018-03-25T05:01:51.240Z,2.60
2018-03-25T05:04:18.203Z,2.60
2018-03-25T05:06:45.101Z,2.70
2018-03-25T05:09:11.977Z,2.60
2018-03-25T05:11:38.903Z,2.60
2018-03-25T05:14:05.778Z,2.60
2018-03-25T05:16:32.747Z,2.70
2018-03-25T05:18:59.710Z,2.60
2018-03-25T05:21:26.590Z,2.60
2018-03-25T05:23:53.519Z,2.60
2018-03-25T05:26:20.446Z,2.60
2018-03-25T05:28:47.429Z,2.60
2018-03-25T05:31:14.320Z,2.60
2018-03-25T05:33:41.260Z,2.60
2018-03-25T05:36:08.162Z,2.60
2018-03-25T05:38:35.108Z,2.70
2018-03-25T05:41:01.996Z,2.70
2018-03-25T05:43:28.939Z,2.70
2018-03-25T05:45:55.886Z,2.80
2018-03-25T05:48:22.806Z,2.90
2018-03-25T05:50:49.747Z,2.80
2018-03-25T05:53:16.615Z,2.80
2018-03-25T05:55:43.532Z,2.70
2018-03-25T05:58:10.427Z,2.80
2018-03-25T06:00:37.364Z,2.90
2018-03-25T06:03:04.262Z,3.00
2018-03-25T06:05:31.256Z,3.10
2018-03-25T06:07:58.146Z,3.50
2018-03-25T06:10:25.138Z,3.50
2018-03-25T06:12:52.023Z,3.60
2018-03-25T06:15:18.915Z,3.40
2018-03-25T06:17:45.861Z,3.40
2018-03-25T06:20:12.731Z,3.80
2018-03-25T06:22:39.645Z,4.10
2018-03-25T06:25:06.536Z,4.70
2018-03-25T06:27:33.490Z,5.10
2018-03-25T06:30:00.437Z,5.50
2018-03-25T06:32:27.303Z,5.90
2018-03-25T06:34:54.258Z,6.10
2018-03-25T06:37:21.161Z,6.50
2018-03-25T06:39:48.124Z,6.80
2018-03-25T06:42:15.036Z,6.90
2018-03-25T06:44:41.997Z,7.10
2018-03-25T06:47:09.676Z,7.00
2018-03-25T06:49:36.623Z,7.00
2018-03-25T06:52:04.305Z,7.50
2018-03-25T06:54:31.241Z,7.40
2018-03-25T06:56:58.105Z,7.40
2018-03-25T06:59:25.076Z,7.00
2018-03-25T07:01:51.942Z,7.10
2018-03-25T07:04:18.868Z,7.20
2018-03-25T07:06:45.803Z,7.70
2018-03-25T07:09:12.762Z,7.40
2018-03-25T07:11:40.475Z,9.10
2018-03-25T07:14:07.345Z,9.10
2018-03-25T07:16:34.264Z,9.80
2018-03-25T07:19:01.196Z,8.90
2018-03-25T07:21:28.969Z,8.60
2018-03-25T07:23:56.604Z,9.20
2018-03-25T07:26:23.544Z,9.20
2018-03-25T07:28:50.452Z,9.50
2018-03-25T07:31:17.392Z,10.00
2018-03-25T07:33:44.677Z,11.00
2018-03-25T07:36:11.549Z,10.60
2018-03-25T07:38:45.301Z,11.90
2018-03-25T07:41:20.705Z,12.00
2018-03-25T07:43:49.348Z,13.40
2018-03-25T07:46:16.509Z,14.30
2018-03-25T07:48:51.393Z,15.00
2018-03-25T07:51:21.276Z,13.30
2018-03-25T07:53:56.067Z,14.60
2018-03-25T07:56:35.052Z,13.80
2018-03-25T07:59:10.894Z,13.60
2018-03-25T08:01:42.181Z,14.90
2018-03-25T08:04:16.114Z,16.40
2018-03-25T08:06:56.497Z,17.20
2018-03-25T08:09:38.846Z,17.00
2018-03-25T08:12:06.610Z,17.30
2018-03-25T08:14:34.328Z,19.40
2018-03-25T08:17:02.623Z,17.90
2018-03-25T08:19:42.093Z,20.50
2018-03-25T08:22:10.612Z,19.70
2018-03-25T08:24:48.153Z,21.50
2018-03-25T08:27:26.015Z,22.80
2018-03-25T08:29:53.721Z,21.20
2018-03-25T08:32:24.419Z,22.30
2018-03-25T08:35:03.812Z,22.10
2018-03-25T08:37:31.893Z,23.10
2018-03-25T08:40:05.591Z,23.60
2018-03-25T08:42:42.677Z,23.40
2018-03-25T08:45:20.123Z,23.30
2018-03-25T08:47:55.669Z,21.30
2018-03-25T08:50:23.268Z,24.80
2018-03-25T08:52:52.242Z,25.50
2018-03-25T08:55:22.400Z,21.10
2018-03-25T09:00:31.533Z,24.20
2018-03-25T09:03:11.003Z,25.20
2018-03-25T09:05:40.253Z,23.10
2018-03-25T09:08:18.758Z,22.80
2018-03-25T09:10:46.557Z,22.70
2018-03-25T09:13:22.900Z,23.20
2018-03-25T09:15:55.266Z,24.30
2018-03-25T09:18:25.653Z,23.60
2018-03-25T09:23:49.835Z,21.70
2018-03-25T09:26:29.988Z,20.90
2018-03-25T09:29:19.335Z,21.70
2018-03-25T09:34:51.740Z,23.00
2018-03-25T09:37:41.308Z,22.60
2018-03-25T09:40:28.931Z,22.10
2018-03-25T09:43:15.694Z,22.80
2018-03-25T09:46:00.189Z,20.40
2018-03-25T09:48:49.273Z,20.40
2018-03-25T09:51:18.412Z,18.40
2018-03-25T09:53:47.418Z,17.20
2018-03-25T09:56:15.237Z,17.20
2018-03-25T09:58:42.379Z,16.00
2018-03-25T10:01:16.534Z,16.20
2018-03-25T10:03:45.078Z,16.60
2018-03-25T10:06:12.142Z,15.90
2018-03-25T10:08:39.270Z,16.20
2018-03-25T10:11:06.234Z,16.60
2018-03-25T10:13:33.244Z,16.60
2018-03-25T10:16:03.023Z,16.00
2018-03-25T10:18:30.039Z,14.90
2018-03-25T10:20:56.980Z,13.90
2018-03-25T10:23:25.155Z,15.50
2018-03-25T10:26:11.781Z,15.10
2018-03-25T10:28:40.707Z,15.10
2018-03-25T10:31:07.658Z,15.70
2018-03-25T10:33:42.030Z,15.30
2018-03-25T10:36:19.833Z,16.00
2018-03-25T10:38:50.384Z,16.20
2018-03-25T10:41:17.491Z,15.30
2018-03-25T10:43:44.881Z,15.70
2018-03-25T10:46:22.816Z,13.50
2018-03-25T10:49:01.392Z,14.80
2018-03-25T10:51:43.954Z,14.20
2018-03-25T10:54:15.309Z,14.80
2018-03-25T10:56:47.141Z,15.90
2018-03-25T10:59:14.872Z,15.30
2018-03-25T11:01:44.434Z,15.30
2018-03-25T11:04:22.186Z,16.00
2018-03-25T11:06:52.153Z,15.60
2018-03-25T11:09:26.916Z,16.10
2018-03-25T11:12:00.630Z,16.20
2018-03-25T11:14:40.424Z,16.90
2018-03-25T11:17:10.147Z,15.40
2018-03-25T11:19:37.041Z,15.40
2018-03-25T11:22:08.536Z,16.00
2018-03-25T11:24:48.174Z,15.80
2018-03-25T11:29:55.894Z,15.30
2018-03-25T11:32:23.251Z,15.20
2018-03-25T11:34:50.735Z,15.60
2018-03-25T11:37:25.062Z,15.60
2018-03-25T11:39:52.677Z,15.50
2018-03-25T11:42:26.931Z,15.60
2018-03-25T11:45:13.583Z,16.40
2018-03-25T11:50:50.564Z,17.50
2018-03-25T11:53:38.946Z,17.50
2018-03-25T11:56:24.184Z,17.10
2018-03-25T12:01:55.190Z,17.70
2018-03-25T12:07:29.341Z,18.10
2018-03-25T12:10:13.058Z,18.40
2018-03-25T12:13:01.160Z,18.50
2018-03-25T12:15:49.092Z,18.60
2018-03-25T12:26:57.999Z,17.50
2018-03-25T12:32:34.262Z,18.30
2018-03-25T12:35:20.777Z,18.30
2018-03-25T12:40:35.179Z,18.50
2018-03-25T12:43:02.112Z,18.30
2018-03-25T12:45:29.023Z,18.10
2018-03-25T12:47:55.973Z,18.20
2018-03-25T12:50:22.848Z,16.50
2018-03-25T12:52:49.884Z,16.50
2018-03-25T12:55:16.772Z,16.40
2018-03-25T12:57:43.630Z,15.30
2018-03-25T13:00:10.587Z,15.40
2018-03-25T13:02:37.468Z,15.60
2018-03-25T13:05:04.448Z,15.40
2018-03-25T13:07:31.351Z,15.80
2018-03-25T13:09:58.404Z,15.90
2018-03-25T13:12:25.288Z,16.20
2018-03-25T13:14:52.165Z,16.80
2018-03-25T13:17:19.833Z,17.30
2018-03-25T13:19:46.912Z,17.30
2018-03-25T13:22:13.863Z,16.50
2018-03-25T13:24:40.808Z,17.10
2018-03-25T13:27:07.927Z,17.50
2018-03-25T13:29:34.864Z,17.60
2018-03-25T13:32:01.751Z,18.00
2018-03-25T13:37:49.758Z,16.50
2018-03-25T13:40:16.710Z,16.50
2018-03-25T13:42:44.385Z,16.90
2018-03-25T13:45:11.256Z,16.90
2018-03-25T13:47:38.168Z,17.30
2018-03-25T13:50:05.213Z,17.40
2018-03-25T13:52:50.630Z,17.60
2018-03-25T13:58:30.874Z,17.50
2018-03-25T14:01:16.542Z,16.50
2018-03-25T14:04:10.112Z,16.90
2018-03-25T14:12:31.773Z,17.20
2018-03-25T14:18:06.870Z,17.40
2018-03-25T14:20:52.103Z,17.40
2018-03-25T14:23:38.751Z,17.40
2018-03-25T14:32:04.626Z,16.40
2018-03-25T14:34:48.839Z,16.50
2018-03-25T14:48:55.824Z,16.80
2018-03-25T14:51:41.804Z,16.80
2018-03-25T14:54:31.066Z,16.80
2018-03-25T14:56:59.068Z,16.50
2018-03-25T14:59:26.943Z,16.50
2018-03-25T15:01:57.596Z,16.10
2018-03-25T15:04:25.435Z,16.40
2018-03-25T15:06:52.401Z,16.40
2018-03-25T15:15:12.024Z,15.90
2018-03-25T15:20:44.376Z,16.00
2018-03-25T15:23:28.192Z,15.50
2018-03-25T15:34:49.267Z,15.60
2018-03-25T15:48:55.576Z,15.30
2018-03-25T15:54:30.599Z,14.50
2018-03-25T16:00:03.532Z,14.60
2018-03-25T16:05:37.756Z,14.30
2018-03-25T16:14:01.633Z,14.20
2018-03-25T16:19:37.131Z,14.20
2018-03-25T16:22:25.171Z,14.20
2018-03-25T16:25:09.016Z,14.20
2018-03-25T16:27:52.105Z,14.00
2018-03-25T16:30:40.004Z,14.00
2018-03-25T16:33:23.775Z,14.20
2018-03-25T16:39:08.199Z,14.20
2018-03-25T16:41:51.365Z,14.00
2018-03-25T16:44:48.572Z,13.90
2018-03-25T16:47:34.177Z,13.60
2018-03-25T16:50:19.750Z,13.60
2018-03-25T16:53:05.635Z,13.50
2018-03-25T16:55:55.621Z,13.50
2018-03-25T16:58:45.227Z,13.50
2018-03-25T17:01:13.233Z,13.40
2018-03-25T17:03:40.139Z,13.30
2018-03-25T17:06:07.067Z,13.30
2018-03-25T17:08:34.971Z,13.20
2018-03-25T17:11:02.004Z,13.20
2018-03-25T17:13:28.892Z,13.20
2018-03-25T17:15:55.844Z,13.30
2018-03-25T17:18:22.735Z,13.30
2018-03-25T17:20:49.673Z,13.20
2018-03-25T17:23:16.627Z,13.20
2018-03-25T17:25:43.660Z,13.10
2018-03-25T17:28:10.565Z,13.00
2018-03-25T17:30:37.489Z,12.90
2018-03-25T17:33:04.466Z,12.80
2018-03-25T17:35:31.364Z,12.70
2018-03-25T17:37:58.411Z,12.60
2018-03-25T17:40:25.294Z,12.50
2018-03-25T17:42:52.242Z,12.30
2018-03-25T17:45:19.121Z,12.20
2018-03-25T17:47:46.853Z,12.10
2018-03-25T17:50:13.739Z,12.00
2018-03-25T17:52:40.839Z,12.00
2018-03-25T17:55:07.745Z,11.90
2018-03-25T17:57:34.664Z,11.80
2018-03-25T18:00:02.428Z,11.60
2018-03-25T18:02:30.112Z,11.50
2018-03-25T18:04:57.060Z,11.40
2018-03-25T18:07:23.937Z,11.40
2018-03-25T18:09:50.934Z,11.30
2018-03-25T18:12:17.902Z,11.20
2018-03-25T18:14:44.809Z,11.10
2018-03-25T18:17:33.462Z,11.00
2018-03-25T18:19:38.982Z,10.90
2018-03-25T18:22:06.008Z,10.90
2018-03-25T18:24:33.025Z,10.80
2018-03-25T18:26:59.878Z,10.70
2018-03-25T18:29:26.800Z,10.70
2018-03-25T18:31:54.492Z,10.40
2018-03-25T18:34:21.405Z,10.40
2018-03-25T18:36:48.327Z,10.30
2018-03-25T18:39:15.218Z,10.20
2018-03-25T18:41:42.191Z,10.20
2018-03-25T18:44:09.090Z,10.10
2018-03-25T18:46:36.788Z,10.00
2018-03-25T18:49:03.700Z,10.00
2018-03-25T18:51:30.751Z,10.00
2018-03-25T18:53:58.476Z,9.90
2018-03-25T18:56:25.423Z,9.80
2018-03-25T18:58:52.380Z,9.80
2018-03-25T19:01:19.451Z,9.70
2018-03-25T19:03:47.501Z,9.60
2018-03-25T19:06:15.471Z,9.60
2018-03-25T19:08:42.911Z,9.50
2018-03-25T19:11:10.163Z,9.40
2018-03-25T19:13:37.214Z,9.40
2018-03-25T19:16:04.113Z,9.40
2018-03-25T19:18:31.863Z,9.30
2018-03-25T19:20:58.761Z,9.40
2018-03-25T19:23:25.799Z,9.30
2018-03-25T19:25:52.684Z,9.30
2018-03-25T19:28:19.616Z,9.20
2018-03-25T19:30:46.527Z,9.20
2018-03-25T19:33:13.471Z,9.10
2018-03-25T19:35:40.417Z,9.10
2018-03-25T19:38:21.760Z,9.10
2018-03-25T19:41:00.162Z,9.00
2018-03-25T19:43:41.346Z,8.90
2018-03-25T19:46:22.879Z,8.90
2018-03-25T19:49:01.756Z,8.80
2018-03-25T19:51:35.535Z,8.80
2018-03-25T19:54:03.342Z,8.80
2018-03-25T19:56:30.460Z,8.70
2018-03-25T19:58:57.461Z,8.60
2018-03-25T20:01:25.124Z,8.60
2018-03-25T20:03:52.913Z,8.60
2018-03-25T20:06:19.874Z,8.50
2018-03-25T20:08:46.833Z,8.50
2018-03-25T20:11:13.816Z,8.50
2018-03-25T20:13:40.760Z,8.50
2018-03-25T20:16:07.693Z,8.40
2018-03-25T20:18:34.654Z,8.40
2018-03-25T20:21:01.597Z,8.40
2018-03-25T20:23:28.544Z,8.30
2018-03-25T20:25:55.424Z,8.30
2018-03-25T20:28:27.112Z,8.30
2018-03-25T20:31:05.040Z,8.20
2018-03-25T20:33:33.624Z,8.10
2018-03-25T20:36:00.506Z,8.10
2018-03-25T20:38:38.025Z,8.10
2018-03-25T20:41:15.390Z,8.00
2018-03-25T20:43:43.083Z,7.90
2018-03-25T20:46:21.929Z,7.90
2018-03-25T20:48:49.625Z,8.00
2018-03-25T20:51:16.531Z,8.00
2018-03-25T20:53:43.541Z,8.00
2018-03-25T20:56:10.504Z,8.00
2018-03-25T20:58:49.431Z,8.00
2018-03-25T21:01:21.703Z,7.90
2018-03-25T21:04:00.497Z,7.90
2018-03-25T21:06:39.932Z,8.00
2018-03-25T21:09:19.562Z,8.00
2018-03-25T21:11:57.663Z,8.00
2018-03-25T21:14:24.673Z,8.00
2018-03-25T21:16:51.544Z,7.90
2018-03-25T21:19:30.324Z,8.00
2018-03-25T21:22:08.641Z,8.00
2018-03-25T21:24:48.077Z,8.10
2018-03-25T21:27:16.487Z,8.20
2018-03-25T21:29:43.416Z,8.20
2018-03-25T21:32:10.373Z,8.20
2018-03-25T21:34:37.420Z,8.00
2018-03-25T21:37:15.284Z,8.20
2018-03-25T21:39:54.838Z,8.30
2018-03-25T21:42:38.248Z,8.60
2018-03-25T21:45:18.358Z,8.60
2018-03-25T21:47:57.152Z,8.70
2018-03-25T21:50:36.383Z,8.90
2018-03-25T21:53:07.901Z,8.90
2018-03-25T21:55:46.846Z,8.90
2018-03-25T21:58:22.078Z,8.80
2018-03-25T22:01:03.466Z,8.80
2018-03-25T22:03:30.893Z,8.80
2018-03-25T22:05:59.851Z,8.80
2018-03-25T22:08:26.825Z,8.70
2018-03-25T22:10:53.739Z,8.70
2018-03-25T22:13:20.751Z,8.60
2018-03-25T22:15:47.732Z,8.60
2018-03-25T22:18:14.776Z,8.50
2018-03-25T22:20:41.785Z,8.30
2018-03-25T22:23:08.664Z,8.50
2018-03-25T22:25:36.293Z,8.30
2018-03-25T22:28:03.247Z,8.30
2018-03-25T22:30:30.204Z,8.50
2018-03-25T22:32:57.144Z,8.50
2018-03-25T22:35:24.023Z,8.40
2018-03-25T22:37:50.972Z,8.50
2018-03-25T22:40:17.851Z,8.50
2018-03-25T22:42:44.801Z,8.50
2018-03-25T22:45:11.676Z,8.50
2018-03-25T22:47:38.619Z,8.30
2018-03-25T22:50:06.334Z,8.50
2018-03-25T22:52:33.321Z,8.40
2018-03-25T22:55:00.268Z,8.50
2018-03-25T22:57:27.215Z,8.50
2018-03-25T22:59:54.151Z,8.50
2018-03-25T23:02:21.142Z,8.50
2018-03-25T23:04:48.110Z,8.50
2018-03-25T23:07:15.057Z,8.60
2018-03-25T23:09:41.940Z,8.60
2018-03-25T23:12:08.945Z,8.70
2018-03-25T23:14:35.814Z,8.70
2018-03-25T23:17:02.764Z,8.70
2018-03-25T23:19:29.644Z,8.70
2018-03-25T23:21:57.345Z,8.70
2018-03-25T23:24:24.233Z,8.70
2018-03-25T23:26:51.166Z,8.60
2018-03-25T23:29:18.055Z,8.70
2018-03-25T23:31:45.015Z,8.70
2018-03-25T23:34:11.952Z,8.70
2018-03-25T23:36:38.940Z,8.70
2018-03-25T23:39:05.838Z,8.60
2018-03-25T23:41:33.559Z,8.60
2018-03-25T23:44:00.491Z,8.50
2018-03-25T23:46:27.436Z,8.60
2018-03-25T23:48:54.313Z,8.60
2018-03-25T23:51:21.265Z,8.60
2018-03-25T23:53:48.142Z,8.60
2018-03-25T23:56:15.133Z,8.70
2018-03-25T23:58:42.019Z,8.70
